This is the latest recevied weather packets stored in our database for station/object W7TRD. If no packets are shown the sender has not sent any weather packets the latest 10 day(s).
| Time | Temp. | Humidity | Pressure | Rain* | Wind** | Luminosity | Snow |
|---|---|---|---|---|---|---|---|
| 1788220146 | 28.89° C | 41% | 1007.9 hPa | 0 mm | - | 65 W/m² | - |
| 1788219846 | 28.89° C | 42% | 1007.9 hPa | 0 mm | - | 73 W/m² | - |
| 1788219541 | 28.33° C | 41% | 1008 hPa | 0 mm | - | 76 W/m² | - |
| 1788219236 | 28.89° C | 42% | 1008.1 hPa | 0 mm | - | 77 W/m² | - |
| 1788218932 | 28.89° C | 42% | 1008.1 hPa | 0 mm | - | 82 W/m² | - |
| 1788218628 | 28.89° C | 41% | 1007.9 hPa | 0 mm | - | 84 W/m² | - |
| 1788218324 | 28.89° C | 41% | 1008 hPa | 0 mm | - | 86 W/m² | - |
| 1788218020 | 28.89° C | 42% | 1008 hPa | 0 mm | - | 87 W/m² | - |
| 1788217715 | 28.33° C | 42% | 1008.1 hPa | 0 mm | - | 88 W/m² | - |
| 1788217410 | 28.33° C | 42% | 1008 hPa | 0 mm | - | 89 W/m² | - |
| 1788217110 | 28.33° C | 42% | 1008 hPa | 0 mm | - | 90 W/m² | - |
| 1788216805 | 28.33° C | 42% | 1008.3 hPa | 0 mm | - | 91 W/m² | - |
| 1788216501 | 28.33° C | 42% | 1008.2 hPa | 0 mm | - | 91 W/m² | - |
| 1788216201 | 28.33° C | 42% | 1008.4 hPa | 0 mm | - | 92 W/m² | - |
| 1788215896 | 28.33° C | 44% | 1008.4 hPa | 0 mm | - | 92 W/m² | - |
| 1788215592 | 28.33° C | 43% | 1008.3 hPa | 0 mm | - | 93 W/m² | - |
| 1788215289 | 28.33° C | 42% | 1008.3 hPa | 0 mm | - | 93 W/m² | - |
| 1788214984 | 28.33° C | 45% | 1008.5 hPa | 0 mm | - | 93 W/m² | - |
| 1788214679 | 28.89° C | 43% | 1008.3 hPa | 0 mm | - | 94 W/m² | - |
| 1788214375 | 28.33° C | 42% | 1008.4 hPa | 0 mm | - | 576 W/m² | - |
| 1788214074 | 28.89° C | 42% | 1008.5 hPa | 0 mm | - | 587 W/m² | - |
| 1788213770 | 28.33° C | 45% | 1008.6 hPa | 0 mm | - | 604 W/m² | - |
| 1788213470 | 28.89° C | 43% | 1008.6 hPa | 0 mm | - | 603 W/m² | - |
| 1788213166 | 28.33° C | 45% | 1008.9 hPa | 0 mm | - | 628 W/m² | - |
| 1788212863 | 28.89° C | 43% | 1008.8 hPa | 0 mm | - | 608 W/m² | - |
* Rain latest hour (hover to see other rain measurements)
** Current wind speed in m/s (hover to see current wind gust speed)